sensor_id;sensor_type;location;lat;lon;timestamp;pressure;altitude;pressure_sealevel;temperature;humidity
43770;BME280;6597;52.218;9.882;2023-04-15T00:02:12;100069.25;;;6.79;100.00
43770;BME280;6597;52.218;9.882;2023-04-15T00:04:39;100073.81;;;6.73;100.00
43770;BME280;6597;52.218;9.882;2023-04-15T00:07:05;100077.41;;;6.69;100.00
43770;BME280;6597;52.218;9.882;2023-04-15T00:09:32;100068.88;;;6.64;100.00
43770;BME280;6597;52.218;9.882;2023-04-15T00:11:59;100059.34;;;6.63;100.00
43770;BME280;6597;52.218;9.882;2023-04-15T00:14:26;100062.91;;;6.60;100.00
43770;BME280;6597;52.218;9.882;2023-04-15T00:16:52;100052.56;;;6.57;100.00
43770;BME280;6597;52.218;9.882;2023-04-15T00:19:22;100052.75;;;6.51;100.00
43770;BME280;6597;52.218;9.882;2023-04-15T00:21:49;100056.97;;;6.55;100.00
43770;BME280;6597;52.218;9.882;2023-04-15T00:24:16;100060.38;;;6.57;100.00
43770;BME280;6597;52.218;9.882;2023-04-15T00:26:42;100056.06;;;6.56;100.00
43770;BME280;6597;52.218;9.882;2023-04-15T00:29:09;100055.03;;;6.62;100.00
43770;BME280;6597;52.218;9.882;2023-04-15T00:31:35;100048.91;;;6.63;100.00
43770;BME280;6597;52.218;9.882;2023-04-15T00:34:02;100053.22;;;6.64;100.00
43770;BME280;6597;52.218;9.882;2023-04-15T00:36:30;100055.84;;;6.64;100.00
43770;BME280;6597;52.218;9.882;2023-04-15T00:38:58;100051.47;;;6.64;100.00
43770;BME280;6597;52.218;9.882;2023-04-15T00:41:24;100050.66;;;6.62;100.00
43770;BME280;6597;52.218;9.882;2023-04-15T00:43:51;100056.75;;;6.63;100.00
43770;BME280;6597;52.218;9.882;2023-04-15T00:46:18;100047.25;;;6.60;100.00
43770;BME280;6597;52.218;9.882;2023-04-15T00:48:46;100047.22;;;6.62;100.00
43770;BME280;6597;52.218;9.882;2023-04-15T00:51:13;100048.03;;;6.64;100.00
43770;BME280;6597;52.218;9.882;2023-04-15T00:53:41;100052.38;;;6.63;100.00
43770;BME280;6597;52.218;9.882;2023-04-15T00:56:08;100048.03;;;6.64;100.00
43770;BME280;6597;52.218;9.882;2023-04-15T00:58:34;100041.09;;;6.63;100.00
43770;BME280;6597;52.218;9.882;2023-04-15T01:01:01;100050.56;;;6.65;100.00
43770;BME280;6597;52.218;9.882;2023-04-15T01:03:29;100038.44;;;6.64;100.00
43770;BME280;6597;52.218;9.882;2023-04-15T01:05:55;100049.78;;;6.63;100.00
43770;BME280;6597;52.218;9.882;2023-04-15T01:08:25;100041.94;;;6.63;100.00
43770;BME280;6597;52.218;9.882;2023-04-15T01:10:54;100042.72;;;6.67;100.00
43770;BME280;6597;52.218;9.882;2023-04-15T01:13:22;100040.09;;;6.67;100.00
43770;BME280;6597;52.218;9.882;2023-04-15T01:15:50;100035.88;;;6.63;100.00
43770;BME280;6597;52.218;9.882;2023-04-15T01:18:20;100034.13;;;6.63;100.00
43770;BME280;6597;52.218;9.882;2023-04-15T01:20:47;100046.25;;;6.64;100.00
43770;BME280;6597;52.218;9.882;2023-04-15T01:23:14;100036.78;;;6.62;100.00
43770;BME280;6597;52.218;9.882;2023-04-15T01:25:43;100027.19;;;6.62;100.00
43770;BME280;6597;52.218;9.882;2023-04-15T01:28:11;100032.38;;;6.64;100.00
43770;BME280;6597;52.218;9.882;2023-04-15T01:30:37;100030.47;;;6.69;100.00
43770;BME280;6597;52.218;9.882;2023-04-15T01:33:04;100026.16;;;6.68;100.00
43770;BME280;6597;52.218;9.882;2023-04-15T01:35:30;100032.97;;;6.72;100.00
43770;BME280;6597;52.218;9.882;2023-04-15T01:38:00;100025.06;;;6.75;100.00
43770;BME280;6597;52.218;9.882;2023-04-15T01:40:29;100031.97;;;6.76;100.00
43770;BME280;6597;52.218;9.882;2023-04-15T01:42:58;100031.03;;;6.78;100.00
43770;BME280;6597;52.218;9.882;2023-04-15T01:45:25;100023.22;;;6.78;100.00
43770;BME280;6597;52.218;9.882;2023-04-15T01:47:52;100028.41;;;6.78;100.00
43770;BME280;6597;52.218;9.882;2023-04-15T01:50:18;100024.91;;;6.79;100.00
43770;BME280;6597;52.218;9.882;2023-04-15T01:52:46;100021.41;;;6.80;100.00
43770;BME280;6597;52.218;9.882;2023-04-15T01:55:13;100022.25;;;6.81;100.00
43770;BME280;6597;52.218;9.882;2023-04-15T01:57:40;100020.50;;;6.81;100.00
43770;BME280;6597;52.218;9.882;2023-04-15T02:00:09;100021.34;;;6.82;100.00
43770;BME280;6597;52.218;9.882;2023-04-15T02:02:41;100017.78;;;6.86;100.00
43770;BME280;6597;52.218;9.882;2023-04-15T02:05:09;100018.72;;;6.83;100.00
43770;BME280;6597;52.218;9.882;2023-04-15T02:07:35;100018.78;;;6.80;100.00
43770;BME280;6597;52.218;9.882;2023-04-15T02:10:02;100021.41;;;6.80;100.00
43770;BME280;6597;52.218;9.882;2023-04-15T02:12:29;100014.53;;;6.78;100.00
43770;BME280;6597;52.218;9.882;2023-04-15T02:14:55;100011.78;;;6.82;100.00
43770;BME280;6597;52.218;9.882;2023-04-15T02:17:23;100010.75;;;6.88;100.00
43770;BME280;6597;52.218;9.882;2023-04-15T02:19:50;100018.53;;;6.90;100.00
43770;BME280;6597;52.218;9.882;2023-04-15T02:22:16;100011.56;;;6.90;100.00
43770;BME280;6597;52.218;9.882;2023-04-15T02:24:45;100005.44;;;6.91;100.00
43770;BME280;6597;52.218;9.882;2023-04-15T02:27:14;100005.31;;;6.94;100.00
43770;BME280;6597;52.218;9.882;2023-04-15T02:29:42;100004.44;;;6.95;100.00
43770;BME280;6597;52.218;9.882;2023-04-15T02:32:08;100000.81;;;6.99;100.00
43770;BME280;6597;52.218;9.882;2023-04-15T02:34:37;100009.50;;;7.00;100.00
43770;BME280;6597;52.218;9.882;2023-04-15T02:37:06;100007.63;;;7.03;100.00
43770;BME280;6597;52.218;9.882;2023-04-15T02:39:34;100015.47;;;7.03;100.00
43770;BME280;6597;52.218;9.882;2023-04-15T02:42:01;100011.94;;;7.04;100.00
43770;BME280;6597;52.218;9.882;2023-04-15T02:44:27;100019.81;;;7.03;100.00
43770;BME280;6597;52.218;9.882;2023-04-15T02:46:58;100020.69;;;7.03;100.00
43770;BME280;6597;52.218;9.882;2023-04-15T02:49:25;100013.66;;;7.05;100.00
43770;BME280;6597;52.218;9.882;2023-04-15T02:51:55;100017.88;;;7.09;100.00
43770;BME280;6597;52.218;9.882;2023-04-15T02:54:22;100016.97;;;7.10;100.00
43770;BME280;6597;52.218;9.882;2023-04-15T02:56:50;100026.53;;;7.10;100.00
43770;BME280;6597;52.218;9.882;2023-04-15T02:59:19;100032.72;;;7.07;100.00
43770;BME280;6597;52.218;9.882;2023-04-15T03:01:46;100024.09;;;7.05;100.00
43770;BME280;6597;52.218;9.882;2023-04-15T03:04:12;100024.25;;;7.01;100.00
43770;BME280;6597;52.218;9.882;2023-04-15T03:06:39;100029.63;;;6.96;100.00
43770;BME280;6597;52.218;9.882;2023-04-15T03:09:09;100022.63;;;6.97;100.00
43770;BME280;6597;52.218;9.882;2023-04-15T03:11:37;100035.59;;;7.00;100.00
43770;BME280;6597;52.218;9.882;2023-04-15T03:14:07;100027.75;;;7.00;100.00
43770;BME280;6597;52.218;9.882;2023-04-15T03:16:36;100020.84;;;6.99;100.00
43770;BME280;6597;52.218;9.882;2023-04-15T03:19:03;100016.41;;;7.01;100.00
43770;BME280;6597;52.218;9.882;2023-04-15T03:21:31;100022.50;;;7.01;100.00
43770;BME280;6597;52.218;9.882;2023-04-15T03:23:58;100017.31;;;7.00;100.00
43770;BME280;6597;52.218;9.882;2023-04-15T03:26:27;100016.41;;;7.01;100.00
43770;BME280;6597;52.218;9.882;2023-04-15T03:28:56;100021.63;;;7.01;100.00
43770;BME280;6597;52.218;9.882;2023-04-15T03:31:23;100016.47;;;6.99;100.00
43770;BME280;6597;52.218;9.882;2023-04-15T03:33:50;100019.28;;;6.93;100.00
43770;BME280;6597;52.218;9.882;2023-04-15T03:36:16;100015.22;;;6.84;100.00
43770;BME280;6597;52.218;9.882;2023-04-15T03:38:43;100013.56;;;6.80;100.00
43770;BME280;6597;52.218;9.882;2023-04-15T03:41:10;100011.97;;;6.76;100.00
43770;BME280;6597;52.218;9.882;2023-04-15T03:43:37;100006.03;;;6.71;100.00
43770;BME280;6597;52.218;9.882;2023-04-15T03:46:04;100014.81;;;6.69;100.00
43770;BME280;6597;52.218;9.882;2023-04-15T03:48:31;100017.53;;;6.66;100.00
43770;BME280;6597;52.218;9.882;2023-04-15T03:50:57;100011.66;;;6.59;100.00
43770;BME280;6597;52.218;9.882;2023-04-15T03:53:24;100023.94;;;6.55;100.00
43770;BME280;6597;52.218;9.882;2023-04-15T03:55:50;100019.78;;;6.48;100.00
43770;BME280;6597;52.218;9.882;2023-04-15T03:58:17;100013.09;;;6.40;100.00
43770;BME280;6597;52.218;9.882;2023-04-15T04:00:45;100019.16;;;6.40;100.00
43770;BME280;6597;52.218;9.882;2023-04-15T04:03:11;100019.31;;;6.36;100.00
43770;BME280;6597;52.218;9.882;2023-04-15T04:05:38;100018.53;;;6.32;100.00
43770;BME280;6597;52.218;9.882;2023-04-15T04:08:06;100018.78;;;6.24;100.00
43770;BME280;6597;52.218;9.882;2023-04-15T04:10:32;100015.34;;;6.22;100.00
43770;BME280;6597;52.218;9.882;2023-04-15T04:12:59;100017.19;;;6.19;100.00
43770;BME280;6597;52.218;9.882;2023-04-15T04:15:26;100011.19;;;6.15;100.00
43770;BME280;6597;52.218;9.882;2023-04-15T04:17:54;100015.59;;;6.13;100.00
43770;BME280;6597;52.218;9.882;2023-04-15T04:20:20;100017.41;;;6.11;100.00
43770;BME280;6597;52.218;9.882;2023-04-15T04:22:47;100017.41;;;6.11;100.00
43770;BME280;6597;52.218;9.882;2023-04-15T04:25:13;100013.03;;;6.12;100.00
43770;BME280;6597;52.218;9.882;2023-04-15T04:27:40;100015.75;;;6.09;100.00
43770;BME280;6597;52.218;9.882;2023-04-15T04:30:07;100020.13;;;6.07;100.00
43770;BME280;6597;52.218;9.882;2023-04-15T04:32:34;100022.03;;;6.02;100.00
43770;BME280;6597;52.218;9.882;2023-04-15T04:35:02;100022.91;;;6.01;100.00
43770;BME280;6597;52.218;9.882;2023-04-15T04:37:29;100019.47;;;6.00;100.00
43770;BME280;6597;52.218;9.882;2023-04-15T04:39:55;100014.25;;;6.00;100.00
43770;BME280;6597;52.218;9.882;2023-04-15T04:42:22;100019.50;;;5.99;100.00
43770;BME280;6597;52.218;9.882;2023-04-15T04:44:48;100024.00;;;5.93;100.00
43770;BME280;6597;52.218;9.882;2023-04-15T04:47:15;100018.03;;;5.90;100.00
43770;BME280;6597;52.218;9.882;2023-04-15T04:49:42;100011.91;;;5.91;100.00
43770;BME280;6597;52.218;9.882;2023-04-15T04:52:10;100017.03;;;5.94;100.00
43770;BME280;6597;52.218;9.882;2023-04-15T04:54:37;100017.09;;;5.92;100.00
43770;BME280;6597;52.218;9.882;2023-04-15T04:57:03;100012.78;;;5.91;100.00
43770;BME280;6597;52.218;9.882;2023-04-15T04:59:32;100008.31;;;5.95;100.00
43770;BME280;6597;52.218;9.882;2023-04-15T05:01:58;100009.19;;;5.96;100.00
43770;BME280;6597;52.218;9.882;2023-04-15T05:04:25;100022.19;;;5.96;100.00
43770;BME280;6597;52.218;9.882;2023-04-15T05:06:51;100016.13;;;5.95;100.00
43770;BME280;6597;52.218;9.882;2023-04-15T05:09:19;100011.88;;;5.92;100.00
43770;BME280;6597;52.218;9.882;2023-04-15T05:11:46;100009.28;;;5.92;100.00
43770;BME280;6597;52.218;9.882;2023-04-15T05:14:12;100006.75;;;5.89;100.00
43770;BME280;6597;52.218;9.882;2023-04-15T05:16:39;100019.59;;;5.96;100.00
43770;BME280;6597;52.218;9.882;2023-04-15T05:19:05;100022.13;;;5.99;100.00
43770;BME280;6597;52.218;9.882;2023-04-15T05:21:32;100014.25;;;6.00;100.00
43770;BME280;6597;52.218;9.882;2023-04-15T05:23:59;100013.31;;;6.03;100.00
43770;BME280;6597;52.218;9.882;2023-04-15T05:26:27;100015.88;;;6.04;100.00
43770;BME280;6597;52.218;9.882;2023-04-15T05:28:53;100015.09;;;6.01;100.00
43770;BME280;6597;52.218;9.882;2023-04-15T05:31:20;100017.72;;;6.01;100.00
43770;BME280;6597;52.218;9.882;2023-04-15T05:33:46;100013.31;;;6.03;100.00
43770;BME280;6597;52.218;9.882;2023-04-15T05:36:13;100016.81;;;6.02;100.00
43770;BME280;6597;52.218;9.882;2023-04-15T05:38:40;100012.31;;;6.07;100.00
43770;BME280;6597;52.218;9.882;2023-04-15T05:41:06;100021.84;;;6.08;100.00
43770;BME280;6597;52.218;9.882;2023-04-15T05:43:35;100005.38;;;6.07;100.00
43770;BME280;6597;52.218;9.882;2023-04-15T05:46:01;100013.13;;;6.09;100.00
43770;BME280;6597;52.218;9.882;2023-04-15T05:48:28;100014.94;;;6.07;100.00
43770;BME280;6597;52.218;9.882;2023-04-15T05:50:54;100012.28;;;6.08;100.00
43770;BME280;6597;52.218;9.882;2023-04-15T05:53:21;100006.22;;;6.08;100.00
43770;BME280;6597;52.218;9.882;2023-04-15T05:55:47;100006.16;;;6.09;100.00
43770;BME280;6597;52.218;9.882;2023-04-15T05:58:14;100006.06;;;6.12;100.00
43770;BME280;6597;52.218;9.882;2023-04-15T06:00:42;100006.03;;;6.14;100.00
43770;BME280;6597;52.218;9.882;2023-04-15T06:03:10;100005.19;;;6.13;100.00
43770;BME280;6597;52.218;9.882;2023-04-15T06:05:37;100008.69;;;6.12;100.00
43770;BME280;6597;52.218;9.882;2023-04-15T06:08:05;100005.22;;;6.12;100.00
43770;BME280;6597;52.218;9.882;2023-04-15T06:10:33;100004.38;;;6.11;100.00
43770;BME280;6597;52.218;9.882;2023-04-15T06:13:00;100012.09;;;6.14;100.00
43770;BME280;6597;52.218;9.882;2023-04-15T06:15:27;100003.47;;;6.12;100.00
43770;BME280;6597;52.218;9.882;2023-04-15T06:17:55;100010.38;;;6.13;100.00
43770;BME280;6597;52.218;9.882;2023-04-15T06:20:22;100000.06;;;6.10;100.00
43770;BME280;6597;52.218;9.882;2023-04-15T06:22:48;100012.06;;;6.16;100.00
43770;BME280;6597;52.218;9.882;2023-04-15T06:25:15;100013.81;;;6.15;100.00
43770;BME280;6597;52.218;9.882;2023-04-15T06:27:42;100009.59;;;6.11;100.00
43770;BME280;6597;52.218;9.882;2023-04-15T06:30:09;100018.25;;;6.12;100.00
43770;BME280;6597;52.218;9.882;2023-04-15T06:32:36;100013.84;;;6.14;100.00
43770;BME280;6597;52.218;9.882;2023-04-15T06:35:04;100015.59;;;6.13;100.00
43770;BME280;6597;52.218;9.882;2023-04-15T06:37:31;100012.94;;;6.15;100.00
43770;BME280;6597;52.218;9.882;2023-04-15T06:39:57;100020.72;;;6.16;100.00
43770;BME280;6597;52.218;9.882;2023-04-15T06:42:24;100010.34;;;6.15;100.00
43770;BME280;6597;52.218;9.882;2023-04-15T06:44:51;100017.22;;;6.17;100.00
43770;BME280;6597;52.218;9.882;2023-04-15T06:47:17;100017.16;;;6.20;100.00
43770;BME280;6597;52.218;9.882;2023-04-15T06:49:44;100016.25;;;6.21;100.00
43770;BME280;6597;52.218;9.882;2023-04-15T06:52:12;100017.22;;;6.17;100.00
43770;BME280;6597;52.218;9.882;2023-04-15T06:54:38;100014.59;;;6.19;100.00
43770;BME280;6597;52.218;9.882;2023-04-15T06:57:05;100018.88;;;6.21;100.00
43770;BME280;6597;52.218;9.882;2023-04-15T06:59:33;100023.94;;;6.26;100.00
43770;BME280;6597;52.218;9.882;2023-04-15T07:02:00;100023.00;;;6.29;100.00
43770;BME280;6597;52.218;9.882;2023-04-15T07:04:26;100029.09;;;6.28;100.00
43770;BME280;6597;52.218;9.882;2023-04-15T07:06:53;100036.88;;;6.29;100.00
43770;BME280;6597;52.218;9.882;2023-04-15T07:09:21;100043.78;;;6.30;100.00
43770;BME280;6597;52.218;9.882;2023-04-15T07:11:47;100033.28;;;6.33;100.00
43770;BME280;6597;52.218;9.882;2023-04-15T07:14:14;100039.22;;;6.38;100.00
43770;BME280;6597;52.218;9.882;2023-04-15T07:16:40;100038.13;;;6.45;100.00
43770;BME280;6597;52.218;9.882;2023-04-15T07:19:07;100042.31;;;6.51;100.00
43770;BME280;6597;52.218;9.882;2023-04-15T07:21:33;100043.25;;;6.48;100.00
43770;BME280;6597;52.218;9.882;2023-04-15T07:24:00;100044.09;;;6.50;100.00
43770;BME280;6597;52.218;9.882;2023-04-15T07:26:28;100049.25;;;6.52;100.00
43770;BME280;6597;52.218;9.882;2023-04-15T07:28:54;100051.91;;;6.49;100.00
43770;BME280;6597;52.218;9.882;2023-04-15T07:31:21;100046.69;;;6.50;100.00
43770;BME280;6597;52.218;9.882;2023-04-15T07:33:47;100045.81;;;6.50;100.00
43770;BME280;6597;52.218;9.882;2023-04-15T07:36:14;100052.66;;;6.54;100.00
43770;BME280;6597;52.218;9.882;2023-04-15T07:38:40;100047.41;;;6.55;100.00
43770;BME280;6597;52.218;9.882;2023-04-15T07:41:07;100050.81;;;6.58;100.00
43770;BME280;6597;52.218;9.882;2023-04-15T07:43:35;100057.53;;;6.65;100.00
43770;BME280;6597;52.218;9.882;2023-04-15T07:46:01;100057.44;;;6.68;100.00
43770;BME280;6597;52.218;9.882;2023-04-15T07:48:28;100065.13;;;6.72;100.00
43770;BME280;6597;52.218;9.882;2023-04-15T07:50:54;100068.59;;;6.73;100.00
43770;BME280;6597;52.218;9.882;2023-04-15T07:53:21;100059.06;;;6.72;100.00
43770;BME280;6597;52.218;9.882;2023-04-15T07:55:48;100063.47;;;6.70;100.00
43770;BME280;6597;52.218;9.882;2023-04-15T07:58:15;100074.72;;;6.72;100.00
43770;BME280;6597;52.218;9.882;2023-04-15T08:00:42;100067.88;;;6.68;100.00
43770;BME280;6597;52.218;9.882;2023-04-15T08:03:09;100074.91;;;6.66;100.00
43770;BME280;6597;52.218;9.882;2023-04-15T08:05:35;100075.72;;;6.68;100.00
43770;BME280;6597;52.218;9.882;2023-04-15T08:08:02;100073.06;;;6.69;100.00
43770;BME280;6597;52.218;9.882;2023-04-15T08:10:29;100081.59;;;6.74;100.00
43770;BME280;6597;52.218;9.882;2023-04-15T08:12:55;100071.06;;;6.77;100.00
43770;BME280;6597;52.218;9.882;2023-04-15T08:15:22;100068.41;;;6.79;100.00
43770;BME280;6597;52.218;9.882;2023-04-15T08:17:50;100076.97;;;6.84;100.00
43770;BME280;6597;52.218;9.882;2023-04-15T08:20:17;100068.16;;;6.88;100.00
43770;BME280;6597;52.218;9.882;2023-04-15T08:22:44;100061.13;;;6.90;100.00
43770;BME280;6597;52.218;9.882;2023-04-15T08:25:12;100064.44;;;6.95;100.00
43770;BME280;6597;52.218;9.882;2023-04-15T08:27:38;100067.03;;;6.95;100.00
43770;BME280;6597;52.218;9.882;2023-04-15T08:30:06;100073.06;;;6.97;100.00
43770;BME280;6597;52.218;9.882;2023-04-15T08:32:33;100065.13;;;7.00;100.00
43770;BME280;6597;52.218;9.882;2023-04-15T08:35:01;100069.47;;;7.01;100.00
43770;BME280;6597;52.218;9.882;2023-04-15T08:37:27;100069.41;;;7.03;100.00
43770;BME280;6597;52.218;9.882;2023-04-15T08:39:54;100067.75;;;7.00;100.00
43770;BME280;6597;52.218;9.882;2023-04-15T08:42:27;100072.25;;;6.95;100.00
43770;BME280;6597;52.218;9.882;2023-04-15T08:44:58;100072.41;;;6.91;100.00
43770;BME280;6597;52.218;9.882;2023-04-15T08:47:29;100072.25;;;6.95;100.00
43770;BME280;6597;52.218;9.882;2023-04-15T08:49:56;100076.53;;;6.98;100.00
43770;BME280;6597;52.218;9.882;2023-04-15T08:52:25;100094.78;;;6.98;100.00
43770;BME280;6597;52.218;9.882;2023-04-15T08:54:56;100084.34;;;6.98;100.00
43770;BME280;6597;52.218;9.882;2023-04-15T08:57:24;100078.19;;;7.00;100.00
43770;BME280;6597;52.218;9.882;2023-04-15T08:59:51;100086.06;;;6.99;100.00
43770;BME280;6597;52.218;9.882;2023-04-15T09:02:19;100078.25;;;6.99;100.00
43770;BME280;6597;52.218;9.882;2023-04-15T09:04:46;100086.88;;;7.01;100.00
43770;BME280;6597;52.218;9.882;2023-04-15T09:07:12;100087.63;;;7.04;100.00
43770;BME280;6597;52.218;9.882;2023-04-15T09:09:40;100095.50;;;7.03;100.00
43770;BME280;6597;52.218;9.882;2023-04-15T09:12:07;100112.97;;;7.01;100.00
43770;BME280;6597;52.218;9.882;2023-04-15T09:14:34;100111.22;;;7.01;100.00
43770;BME280;6597;52.218;9.882;2023-04-15T09:17:03;100114.72;;;7.00;100.00
43770;BME280;6597;52.218;9.882;2023-04-15T09:19:31;100117.22;;;7.03;100.00
43770;BME280;6597;52.218;9.882;2023-04-15T09:21:58;100114.72;;;7.00;100.00
43770;BME280;6597;52.218;9.882;2023-04-15T09:24:33;100116.44;;;7.01;100.00
43770;BME280;6597;52.218;9.882;2023-04-15T09:27:03;100120.69;;;7.04;100.00
43770;BME280;6597;52.218;9.882;2023-04-15T09:29:29;100116.13;;;7.10;100.00
43770;BME280;6597;52.218;9.882;2023-04-15T09:31:57;100116.94;;;7.12;100.00
43770;BME280;6597;52.218;9.882;2023-04-15T09:34:35;100119.50;;;7.15;100.00
43770;BME280;6597;52.218;9.882;2023-04-15T09:37:02;100117.63;;;7.19;100.00
43770;BME280;6597;52.218;9.882;2023-04-15T09:39:44;100111.47;;;7.22;100.00
43770;BME280;6597;52.218;9.882;2023-04-15T09:42:12;100115.81;;;7.21;100.00
43770;BME280;6597;52.218;9.882;2023-04-15T09:44:39;100124.41;;;7.25;100.00
43770;BME280;6597;52.218;9.882;2023-04-15T09:47:05;100123.50;;;7.26;100.00
43770;BME280;6597;52.218;9.882;2023-04-15T09:49:32;100131.19;;;7.30;100.00
43770;BME280;6597;52.218;9.882;2023-04-15T09:51:59;100121.50;;;7.34;100.00
43770;BME280;6597;52.218;9.882;2023-04-15T09:54:32;100128.28;;;7.39;100.00
43770;BME280;6597;52.218;9.882;2023-04-15T09:57:04;100124.81;;;7.39;100.00
43770;BME280;6597;52.218;9.882;2023-04-15T09:59:32;100126.47;;;7.41;100.00
43770;BME280;6597;52.218;9.882;2023-04-15T10:01:59;100143.84;;;7.42;100.00
43770;BME280;6597;52.218;9.882;2023-04-15T10:04:26;100138.63;;;7.42;100.00
43770;BME280;6597;52.218;9.882;2023-04-15T10:06:54;100135.97;;;7.44;100.00
43770;BME280;6597;52.218;9.882;2023-04-15T10:09:21;100137.66;;;7.45;100.00
43770;BME280;6597;52.218;9.882;2023-04-15T10:11:48;100140.22;;;7.46;100.00
43770;BME280;6597;52.218;9.882;2023-04-15T10:14:16;100134.84;;;7.53;100.00
43770;BME280;6597;52.218;9.882;2023-04-15T10:16:46;100129.56;;;7.54;100.00
43770;BME280;6597;52.218;9.882;2023-04-15T10:19:14;100132.31;;;7.49;100.00
43770;BME280;6597;52.218;9.882;2023-04-15T10:21:44;100137.41;;;7.54;100.00
43770;BME280;6597;52.218;9.882;2023-04-15T10:24:11;100131.50;;;7.47;100.00
43770;BME280;6597;52.218;9.882;2023-04-15T10:26:39;100140.69;;;7.59;100.00
43770;BME280;6597;52.218;9.882;2023-04-15T10:29:06;100134.63;;;7.59;100.00
43770;BME280;6597;52.218;9.882;2023-04-15T10:31:34;100135.16;;;7.68;100.00
43770;BME280;6597;52.218;9.882;2023-04-15T10:34:04;100136.66;;;7.75;100.00
43770;BME280;6597;52.218;9.882;2023-04-15T10:36:31;100131.25;;;7.82;100.00
43770;BME280;6597;52.218;9.882;2023-04-15T10:38:58;100127.47;;;7.90;100.00
43770;BME280;6597;52.218;9.882;2023-04-15T10:41:25;100130.78;;;7.95;100.00
43770;BME280;6597;52.218;9.882;2023-04-15T10:43:59;100128.91;;;7.99;100.00
43770;BME280;6597;52.218;9.882;2023-04-15T10:46:34;100136.59;;;8.03;100.00
43770;BME280;6597;52.218;9.882;2023-04-15T10:49:07;100133.00;;;8.06;100.00
43770;BME280;6597;52.218;9.882;2023-04-15T10:51:37;100139.38;;;7.99;100.00
43770;BME280;6597;52.218;9.882;2023-04-15T10:54:08;100147.09;;;8.02;100.00
43770;BME280;6597;52.218;9.882;2023-04-15T10:56:40;100144.38;;;8.05;100.00
43770;BME280;6597;52.218;9.882;2023-04-15T10:59:07;100146.94;;;8.06;100.00
43770;BME280;6597;52.218;9.882;2023-04-15T11:01:49;100142.66;;;8.04;100.00
43770;BME280;6597;52.218;9.882;2023-04-15T11:04:51;100140.81;;;8.07;100.00
43770;BME280;6597;52.218;9.882;2023-04-15T11:07:39;100146.81;;;8.09;100.00
43770;BME280;6597;52.218;9.882;2023-04-15T11:13:16;100147.06;;;8.28;100.00
43770;BME280;6597;52.218;9.882;2023-04-15T11:15:47;100147.78;;;8.32;100.00
43770;BME280;6597;52.218;9.882;2023-04-15T11:18:14;100154.53;;;8.39;100.00
43770;BME280;6597;52.218;9.882;2023-04-15T11:20:44;100143.97;;;8.42;100.00
43770;BME280;6597;52.218;9.882;2023-04-15T11:23:11;100143.72;;;8.50;100.00
43770;BME280;6597;52.218;9.882;2023-04-15T11:25:37;100154.75;;;8.58;100.00
43770;BME280;6597;52.218;9.882;2023-04-15T11:28:04;100148.56;;;8.60;100.00
43770;BME280;6597;52.218;9.882;2023-04-15T11:30:33;100157.53;;;8.53;100.00
43770;BME280;6597;52.218;9.882;2023-04-15T11:33:02;100159.28;;;8.53;100.00
43770;BME280;6597;52.218;9.882;2023-04-15T11:35:30;100169.88;;;8.50;100.00
43770;BME280;6597;52.218;9.882;2023-04-15T11:38:01;100165.81;;;8.41;100.00
43770;BME280;6597;52.218;9.882;2023-04-15T11:40:29;100166.53;;;8.45;100.00
43770;BME280;6597;52.218;9.882;2023-04-15T11:43:05;100165.44;;;8.52;100.00
43770;BME280;6597;52.218;9.882;2023-04-15T11:45:31;100171.41;;;8.55;100.00
43770;BME280;6597;52.218;9.882;2023-04-15T11:48:05;100178.41;;;8.55;100.00
43770;BME280;6597;52.218;9.882;2023-04-15T11:50:32;100176.53;;;8.58;100.00
43770;BME280;6597;52.218;9.882;2023-04-15T11:53:02;100184.44;;;8.57;100.00
43770;BME280;6597;52.218;9.882;2023-04-15T11:55:30;100190.63;;;8.54;100.00
43770;BME280;6597;52.218;9.882;2023-04-15T11:58:08;100189.84;;;8.52;100.00
43770;BME280;6597;52.218;9.882;2023-04-15T12:00:36;100199.34;;;8.55;100.00
43770;BME280;6597;52.218;9.882;2023-04-15T12:03:16;100201.03;;;8.56;100.00
43770;BME280;6597;52.218;9.882;2023-04-15T12:06:05;100200.25;;;8.54;100.00
43770;BME280;6597;52.218;9.882;2023-04-15T12:08:56;100205.69;;;8.48;100.00
43770;BME280;6597;52.218;9.882;2023-04-15T12:11:35;100207.28;;;8.52;100.00
43770;BME280;6597;52.218;9.882;2023-04-15T12:14:04;100214.34;;;8.50;100.00
43770;BME280;6597;52.218;9.882;2023-04-15T12:16:33;100217.59;;;8.56;100.00
43770;BME280;6597;52.218;9.882;2023-04-15T12:19:01;100211.28;;;8.62;100.00
43770;BME280;6597;52.218;9.882;2023-04-15T12:21:34;100219.19;;;8.60;100.00
43770;BME280;6597;52.218;9.882;2023-04-15T12:24:03;100227.03;;;8.60;100.00
43770;BME280;6597;52.218;9.882;2023-04-15T12:26:33;100233.06;;;8.62;100.00
43770;BME280;6597;52.218;9.882;2023-04-15T12:29:00;100233.06;;;8.62;100.00
43770;BME280;6597;52.218;9.882;2023-04-15T12:31:27;100229.72;;;8.59;100.00
43770;BME280;6597;52.218;9.882;2023-04-15T12:33:54;100234.94;;;8.59;100.00
43770;BME280;6597;52.218;9.882;2023-04-15T12:36:21;100232.22;;;8.62;100.00
43770;BME280;6597;52.218;9.882;2023-04-15T12:38:47;100238.97;;;8.67;100.00
43770;BME280;6597;52.218;9.882;2023-04-15T12:41:15;100242.47;;;8.68;100.00
43770;BME280;6597;52.218;9.882;2023-04-15T12:43:43;100238.06;;;8.68;100.00
43770;BME280;6597;52.218;9.882;2023-04-15T12:46:09;100241.66;;;8.66;100.00
43770;BME280;6597;52.218;9.882;2023-04-15T12:48:36;100245.94;;;8.68;100.00
43770;BME280;6597;52.218;9.882;2023-04-15T12:51:03;100243.19;;;8.71;100.00
43770;BME280;6597;52.218;9.882;2023-04-15T12:53:29;100251.00;;;8.73;100.00
43770;BME280;6597;52.218;9.882;2023-04-15T12:55:56;100256.06;;;8.78;100.00
43770;BME280;6597;52.218;9.882;2023-04-15T12:58:24;100258.59;;;8.81;100.00
43770;BME280;6597;52.218;9.882;2023-04-15T13:00:50;100263.78;;;8.82;100.00
43770;BME280;6597;52.218;9.882;2023-04-15T13:03:17;100258.38;;;8.87;100.00
43770;BME280;6597;52.218;9.882;2023-04-15T13:05:43;100259.22;;;8.87;100.00
43770;BME280;6597;52.218;9.882;2023-04-15T13:08:10;100267.03;;;8.89;100.00